Time;durP1;ratioP1;P1;durP2;ratioP2;P2;SDS_P1;SDS_P2;PMS_P1;PMS_P2;Temp;Humidity;BMP_temperature;BMP_pressure;BME280_temperature;BME280_humidity;BME280_pressure;Samples;Min_cycle;Max_cycle;Signal;HPM_P1;HPM_P2
2022/11/15 00:00:55;;;;;;;6.43;5.85;;;;;;;8.53;100.00;100523.63;6110394;23;20010;-74
2022/11/15 00:03:25;;;;;;;5.00;4.70;;;;;;;8.65;100.00;100529.22;6070028;23;20025;-74
2022/11/15 00:05:52;;;;;;;6.63;5.47;;;;;;;8.69;100.00;100534.22;6117756;23;20021;-74
2022/11/15 00:08:19;;;;;;;6.47;5.97;;;;;;;7.95;100.00;100414.72;6071634;23;20689;-73
2022/11/15 00:10:56;;;;;;;10.68;5.72;;;;;;;8.70;100.00;100530.69;6118951;23;20088;-73
2022/11/15 00:13:23;;;;;;;6.15;5.68;;;;;;;8.72;100.00;100533.22;6097344;23;20034;-73
2022/11/15 00:15:49;;;;;;;5.13;4.82;;;;;;;8.44;100.00;100487.47;6069895;23;20030;-73
2022/11/15 00:18:16;;;;;;;5.68;5.28;;;;;;;8.37;100.00;100473.75;6122967;23;20029;-73
2022/11/15 00:20:43;;;;;;;5.70;5.28;;;;;;;8.68;100.00;100509.00;6114193;23;20077;-72
2022/11/15 00:23:09;;;;;;;6.18;5.55;;;;;;;8.37;100.00;100468.53;6105778;23;20016;-73
2022/11/15 00:25:36;;;;;;;6.35;5.68;;;;;;;8.82;100.00;100531.03;6120790;23;20041;-73
2022/11/15 00:28:03;;;;;;;6.30;5.90;;;;;;;8.85;100.00;100530.88;6093040;23;20021;-75
2022/11/15 00:30:29;;;;;;;8.73;5.50;;;;;;;8.88;100.00;100522.88;6125225;23;20041;-73
2022/11/15 00:32:56;;;;;;;6.55;5.95;;;;;;;8.78;100.00;100505.03;6071433;23;20010;-72
2022/11/15 00:35:23;;;;;;;10.75;5.97;;;;;;;8.91;100.00;100518.34;6091296;23;20154;-74
2022/11/15 00:37:52;;;;;;;5.03;4.68;;;;;;;8.96;100.00;100516.38;6097894;23;20034;-75
2022/11/15 00:40:18;;;;;;;5.80;5.50;;;;;;;8.95;100.00;100519.91;6112333;23;20025;-73
2022/11/15 00:42:45;;;;;;;6.03;5.53;;;;;;;8.59;100.00;100460.56;6090536;23;20014;-75
2022/11/15 00:45:12;;;;;;;6.57;5.97;;;;;;;8.93;100.00;100508.66;6093203;23;20041;-74
2022/11/15 00:47:38;;;;;;;12.32;5.53;;;;;;;8.86;100.00;100488.09;6111099;23;20068;-73
2022/11/15 00:50:05;;;;;;;5.97;5.47;;;;;;;8.65;100.00;100448.97;6095281;23;20018;-73
2022/11/15 00:52:32;;;;;;;10.95;6.55;;;;;;;8.77;100.00;100468.44;6119084;23;20458;-73
2022/11/15 00:54:58;;;;;;;5.82;5.43;;;;;;;8.87;100.00;100492.41;6112350;23;20040;-73
2022/11/15 00:57:25;;;;;;;6.28;5.78;;;;;;;9.05;100.00;100509.00;6092045;23;20024;-75
2022/11/15 00:59:51;;;;;;;6.32;5.78;;;;;;;9.09;100.00;100510.53;6120691;23;20034;-77
2022/11/15 01:02:18;;;;;;;6.63;6.07;;;;;;;9.12;100.00;100497.28;6112697;23;20009;-74
2022/11/15 01:04:44;;;;;;;7.03;6.38;;;;;;;9.05;100.00;100475.81;6088731;23;20014;-73
2022/11/15 01:07:11;;;;;;;6.50;5.90;;;;;;;9.18;100.00;100494.34;6094723;23;20536;-73
2022/11/15 01:09:37;;;;;;;5.65;5.25;;;;;;;9.04;100.00;100466.28;6111290;23;20026;-73
2022/11/15 01:12:04;;;;;;;6.57;5.55;;;;;;;8.24;100.00;100335.84;6115165;23;20045;-74
2022/11/15 01:14:30;;;;;;;5.60;5.13;;;;;;;9.17;100.00;100484.81;6090657;23;20033;-73
2022/11/15 01:16:57;;;;;;;5.30;4.90;;;;;;;9.18;100.00;100482.13;6112314;23;20380;-73
2022/11/15 01:19:24;;;;;;;5.72;5.43;;;;;;;8.68;100.00;100399.13;6091530;23;20042;-72
2022/11/15 01:21:50;;;;;;;5.07;4.80;;;;;;;9.23;100.00;100486.28;6092048;23;20039;-75
2022/11/15 01:24:17;;;;;;;6.65;5.70;;;;;;;9.22;100.00;100489.81;6085429;23;20025;-76
2022/11/15 01:26:43;;;;;;;5.60;5.13;;;;;;;7.77;100.00;100245.75;6066883;23;20025;-73
2022/11/15 01:29:10;;;;;;;5.55;5.15;;;;;;;9.26;100.00;100486.13;6082809;23;20026;-72
2022/11/15 01:31:36;;;;;;;6.50;6.05;;;;;;;8.90;100.00;100411.13;6063183;23;20030;-72
2022/11/15 01:34:02;;;;;;;6.45;5.85;;;;;;;9.24;100.00;100453.94;6082560;23;20010;-74
2022/11/15 01:36:29;;;;;;;6.03;5.60;;;;;;;9.27;100.00;100470.34;6060930;23;20527;-74
2022/11/15 01:38:59;;;;;;;6.13;5.65;;;;;;;9.24;100.00;100473.13;6089571;23;20029;-73
2022/11/15 01:41:30;;;;;;;6.72;6.13;;;;;;;9.18;100.00;100461.19;6043307;23;20006;-71
2022/11/15 01:44:44;;;;;;;5.93;5.57;;;;;;;9.28;100.00;100461.56;6064145;23;20018;-73
2022/11/15 01:47:26;;;;;;;8.77;5.55;;;;;;;9.36;100.00;100463.78;6078999;23;20092;-74
2022/11/15 01:49:58;;;;;;;7.55;6.53;;;;;;;9.40;100.00;100457.47;6085374;23;20053;-73
2022/11/15 01:52:27;;;;;;;5.68;5.32;;;;;;;9.44;100.00;100450.28;6059729;23;20030;-73
2022/11/15 01:55:02;;;;;;;6.13;5.72;;;;;;;8.74;100.00;100336.03;6091882;23;20017;-75
2022/11/15 01:57:28;;;;;;;6.38;5.88;;;;;;;9.51;100.00;100439.44;6036132;23;20626;-74
2022/11/15 01:59:57;;;;;;;7.20;6.50;;;;;;;9.09;100.00;100362.16;6062799;23;20681;-75
2022/11/15 02:02:23;;;;;;;6.32;5.82;;;;;;;9.25;100.00;100383.16;6038154;23;20018;-73
2022/11/15 02:04:50;;;;;;;7.57;5.30;;;;;;;9.14;100.00;100356.69;6060874;23;20030;-74
2022/11/15 02:07:19;;;;;;;6.13;5.60;;;;;;;9.48;100.00;100394.19;6087229;23;20014;-72
2022/11/15 02:09:46;;;;;;;9.70;6.10;;;;;;;9.74;100.00;100426.88;6070532;23;20468;-74
2022/11/15 02:12:17;;;;;;;5.88;5.47;;;;;;;9.67;100.00;100402.78;6064943;23;20066;-74
2022/11/15 02:14:50;;;;;;;5.85;5.45;;;;;;;9.90;100.00;100414.69;6028344;23;20045;-74
2022/11/15 02:17:32;;;;;;;5.88;5.38;;;;;;;9.94;100.00;100416.22;6078531;23;20027;-73
2022/11/15 02:20:08;;;;;;;6.60;6.05;;;;;;;9.96;100.00;100414.34;6069587;23;20020;-73
2022/11/15 02:22:43;;;;;;;16.05;6.78;;;;;;;9.95;100.00;100407.41;6093057;23;20032;-73
2022/11/15 02:25:41;;;;;;;6.78;6.18;;;;;;;9.95;100.00;100401.31;6090804;23;20041;-74
2022/11/15 02:28:33;;;;;;;6.57;6.00;;;;;;;9.91;100.00;100403.25;6091664;23;20020;-76
2022/11/15 02:31:11;;;;;;;5.90;5.50;;;;;;;9.99;100.00;100408.09;6091880;23;20013;-73
2022/11/15 02:33:44;;;;;;;6.13;5.70;;;;;;;10.02;100.00;100418.38;6115915;23;21366;-73
2022/11/15 02:36:36;;;;;;;6.00;5.60;;;;;;;9.15;100.00;100274.59;6087734;23;20436;-74
2022/11/15 02:39:15;;;;;;;5.93;5.43;;;;;;;10.06;100.00;100425.16;6115354;23;20009;-74
2022/11/15 02:41:53;;;;;;;6.28;5.80;;;;;;;10.11;100.00;100422.31;6090705;23;20026;-75
2022/11/15 02:44:26;;;;;;;6.57;5.68;;;;;;;10.11;100.00;100422.31;6088798;23;20116;-74
2022/11/15 02:47:12;;;;;;;7.07;6.13;;;;;;;9.96;100.00;100398.63;6090775;23;20014;-73
2022/11/15 02:49:47;;;;;;;6.53;5.93;;;;;;;10.13;100.00;100417.81;6081773;23;20037;-73
2022/11/15 02:52:22;;;;;;;6.93;6.32;;;;;;;10.13;100.00;100412.56;6117521;23;20025;-74
2022/11/15 02:54:56;;;;;;;7.20;6.50;;;;;;;10.14;100.00;100411.63;6114713;23;24716;-74
2022/11/15 02:57:35;;;;;;;6.00;5.45;;;;;;;10.22;100.00;100414.66;6099678;23;20594;-74
2022/11/15 03:00:12;;;;;;;6.70;6.10;;;;;;;10.28;100.00;100416.94;6094544;23;20043;-74
2022/11/15 03:02:49;;;;;;;6.47;5.95;;;;;;;9.88;100.00;100353.63;6085605;23;20426;-73
2022/11/15 03:05:25;;;;;;;6.97;6.40;;;;;;;10.36;100.00;100432.31;6081959;23;20483;-73
2022/11/15 03:08:23;;;;;;;7.50;6.90;;;;;;;10.23;100.00;100400.66;6094070;23;20016;-74
2022/11/15 03:10:50;;;;;;;6.72;6.20;;;;;;;10.34;100.00;100414.06;6086933;23;20087;-72
2022/11/15 03:13:26;;;;;;;7.03;6.40;;;;;;;10.34;100.00;100421.06;6082017;23;20028;-73
2022/11/15 03:16:12;;;;;;;6.55;6.07;;;;;;;10.31;100.00;100421.25;6116362;23;20017;-74
2022/11/15 03:18:43;;;;;;;6.18;5.70;;;;;;;9.88;100.00;100348.38;6092741;23;20048;-72
2022/11/15 03:21:12;;;;;;;5.85;5.43;;;;;;;9.85;100.00;100351.16;6109606;23;20624;-73
2022/11/15 03:23:39;;;;;;;6.45;6.03;;;;;;;10.35;100.00;100407.03;6110092;23;20041;-76
2022/11/15 03:26:13;;;;;;;5.78;5.40;;;;;;;9.83;100.00;100320.75;6087601;23;20550;-75
2022/11/15 03:28:55;;;;;;;14.20;5.93;;;;;;;10.36;100.00;100400.81;6117244;23;20030;-74
2022/11/15 03:34:30;;;;;;;6.15;5.72;;;;;;;10.46;100.00;100395.91;6107649;23;20079;-72
2022/11/15 03:36:56;;;;;;;8.02;6.38;;;;;;;10.36;100.00;100387.72;6088405;23;20067;-75
2022/11/15 03:39:24;;;;;;;5.60;5.20;;;;;;;10.14;100.00;100346.06;6112808;23;20026;-73
2022/11/15 03:41:59;;;;;;;6.38;5.88;;;;;;;10.22;100.00;100354.34;6115174;23;20035;-72
2022/11/15 03:44:33;;;;;;;6.85;6.32;;;;;;;10.25;100.00;100362.06;6091875;23;20062;-73
2022/11/15 03:47:11;;;;;;;6.80;6.25;;;;;;;10.47;100.00;100402.88;6118608;23;20010;-73
2022/11/15 03:49:44;;;;;;;15.45;6.97;;;;;;;10.02;100.00;100333.66;6092134;23;20024;-73
2022/11/15 03:52:11;;;;;;;8.00;7.20;;;;;;;10.21;100.00;100367.56;6119990;23;20016;-73
2022/11/15 03:54:52;;;;;;;6.72;6.22;;;;;;;9.93;100.00;100333.25;6074878;23;20018;-74
2022/11/15 03:57:18;;;;;;;6.70;6.25;;;;;;;10.44;100.00;100406.47;6120821;23;20017;-75
2022/11/15 03:59:45;;;;;;;6.53;5.93;;;;;;;10.44;100.00;100397.78;6093866;23;20087;-73
2022/11/15 04:02:12;;;;;;;8.30;6.47;;;;;;;9.96;100.00;100309.50;6092908;23;20789;-73
2022/11/15 04:04:38;;;;;;;5.72;5.38;;;;;;;10.30;100.00;100367.06;6121387;23;20076;-73
2022/11/15 04:07:05;;;;;;;6.78;6.00;;;;;;;10.51;100.00;100401.75;6117852;23;20705;-72
2022/11/15 04:09:32;;;;;;;5.88;5.40;;;;;;;10.44;100.00;100385.50;6089809;23;20022;-73
2022/11/15 04:11:58;;;;;;;7.65;6.03;;;;;;;10.47;100.00;100398.47;6090284;23;20021;-74
2022/11/15 04:14:24;;;;;;;17.23;6.10;;;;;;;10.27;100.00;100360.19;6091985;23;20026;-73
2022/11/15 04:16:51;;;;;;;6.25;5.85;;;;;;;10.24;100.00;100360.34;6097570;23;20050;-73
2022/11/15 04:24:53;;;;;;;6.40;5.90;;;;;;;10.28;100.00;100361.88;6110554;23;20093;-74
2022/11/15 04:27:19;;;;;;;5.60;5.07;;;;;;;10.16;100.00;100344.22;6089863;23;20014;-73
2022/11/15 04:29:45;;;;;;;7.22;6.55;;;;;;;10.36;100.00;100382.47;6121257;23;20021;-73
2022/11/15 04:32:12;;;;;;;5.50;5.10;;;;;;;10.01;100.00;100330.19;6117556;23;20041;-73
2022/11/15 04:34:38;;;;;;;5.70;5.30;;;;;;;10.31;100.00;100382.72;6086447;23;20526;-74
2022/11/15 04:37:15;;;;;;;6.72;6.15;;;;;;;10.35;100.00;100373.75;6119985;23;20666;-73
2022/11/15 04:39:43;;;;;;;5.60;5.20;;;;;;;10.31;100.00;100372.25;6120091;23;20048;-72
2022/11/15 04:42:10;;;;;;;5.90;5.47;;;;;;;10.30;100.00;100372.31;6090032;23;20038;-73
2022/11/15 04:44:36;;;;;;;5.93;5.53;;;;;;;10.09;100.00;100338.47;6116951;23;20014;-73
2022/11/15 04:47:03;;;;;;;7.70;7.13;;;;;;;9.92;100.00;100321.06;6094685;23;20657;-73
2022/11/15 04:49:30;;;;;;;6.40;5.90;;;;;;;10.25;100.00;100369.09;6114784;23;20474;-74
2022/11/15 04:51:56;;;;;;;6.43;5.82;;;;;;;10.16;100.00;100345.06;6099754;23;20006;-74
2022/11/15 04:54:22;;;;;;;6.75;6.15;;;;;;;10.21;100.00;100349.22;6091478;23;20026;-73
2022/11/15 04:56:49;;;;;;;6.32;5.38;;;;;;;10.29;100.00;100374.06;6120347;23;20746;-73
2022/11/15 04:59:16;;;;;;;5.45;4.95;;;;;;;10.02;100.00;100317.94;6120144;23;20040;-73
2022/11/15 05:01:42;;;;;;;6.78;6.13;;;;;;;10.29;100.00;100370.63;6099505;23;20029;-74
2022/11/15 05:04:20;;;;;;;5.65;5.35;;;;;;;9.80;100.00;100298.16;6117416;23;20465;-74
2022/11/15 05:06:50;;;;;;;6.72;6.18;;;;;;;10.26;100.00;100355.88;6090249;23;20018;-76
2022/11/15 05:09:18;;;;;;;7.03;5.30;;;;;;;10.32;100.00;100363.47;6114439;23;20036;-73
2022/11/15 05:11:45;;;;;;;7.10;6.43;;;;;;;9.71;100.00;100272.47;6083445;23;20054;-73
2022/11/15 05:14:12;;;;;;;7.70;6.90;;;;;;;10.08;100.00;100334.19;6089718;23;20010;-72
2022/11/15 05:16:39;;;;;;;6.45;5.95;;;;;;;10.33;100.00;100369.53;6121347;23;20083;-74
2022/11/15 05:19:06;;;;;;;6.63;6.13;;;;;;;10.20;100.00;100353.59;6113888;23;20572;-75
2022/11/15 05:21:32;;;;;;;6.32;5.93;;;;;;;10.33;100.00;100361.66;6090893;23;20021;-75
2022/11/15 05:23:59;;;;;;;5.30;5.00;;;;;;;10.32;100.00;100371.31;6116051;23;20779;-75
2022/11/15 05:26:26;;;;;;;6.22;5.82;;;;;;;9.76;100.00;100281.78;6095895;23;20026;-73
2022/11/15 05:28:54;;;;;;;6.70;6.05;;;;;;;10.30;100.00;100369.69;6083355;23;20505;-75
2022/11/15 05:31:21;;;;;;;7.03;6.43;;;;;;;10.29;100.00;100363.59;6090828;23;20021;-73
2022/11/15 05:33:49;;;;;;;6.88;6.20;;;;;;;9.85;100.00;100295.28;6118831;23;20894;-74
2022/11/15 05:36:21;;;;;;;5.80;5.40;;;;;;;10.28;100.00;100361.88;6120900;23;20018;-73
2022/11/15 05:38:49;;;;;;;6.82;6.22;;;;;;;10.28;100.00;100364.50;6090379;23;20026;-73
2022/11/15 05:41:17;;;;;;;6.35;5.85;;;;;;;10.32;100.00;100363.47;6114930;23;20053;-74
2022/11/15 05:43:45;;;;;;;5.97;5.57;;;;;;;9.82;100.00;100290.19;6095642;23;20635;-73
2022/11/15 05:46:13;;;;;;;6.32;5.88;;;;;;;10.16;100.00;100346.84;6093163;23;20028;-75
2022/11/15 05:48:44;;;;;;;9.20;6.20;;;;;;;9.73;100.00;100279.31;6091259;23;20060;-74
2022/11/15 05:51:13;;;;;;;6.93;6.35;;;;;;;9.97;100.00;100321.66;6117146;23;20010;-74
2022/11/15 05:53:40;;;;;;;6.72;6.07;;;;;;;9.79;100.00;100285.97;6089837;23;20357;-76
2022/11/15 05:56:08;;;;;;;6.80;6.30;;;;;;;10.24;100.00;100352.50;6115547;23;20077;-73
2022/11/15 05:58:36;;;;;;;7.03;5.70;;;;;;;10.19;100.00;100341.44;6092926;23;20029;-74
2022/11/15 06:01:03;;;;;;;6.38;5.93;;;;;;;10.31;100.00;100363.53;6090910;23;20026;-76
2022/11/15 06:03:29;;;;;;;6.20;5.57;;;;;;;10.31;100.00;100369.63;6119188;23;20033;-74
2022/11/15 06:05:57;;;;;;;5.75;5.38;;;;;;;9.98;100.00;100323.34;6068292;23;20010;-74
2022/11/15 06:08:23;;;;;;;5.18;4.88;;;;;;;9.72;100.00;100282.88;6089810;23;20051;-75
2022/11/15 06:10:49;;;;;;;6.53;5.78;;;;;;;10.31;100.00;100393.22;6119129;23;20025;-75
2022/11/15 06:13:16;;;;;;;6.28;5.78;;;;;;;9.94;100.00;100323.59;6063901;23;20030;-73
2022/11/15 06:15:42;;;;;;;5.95;5.55;;;;;;;9.75;100.00;100289.72;6121172;23;20029;-75
2022/11/15 06:18:09;;;;;;;5.43;5.03;;;;;;;10.33;100.00;100396.59;6066347;23;20014;-75
2022/11/15 06:20:35;;;;;;;5.53;5.13;;;;;;;10.37;100.00;100387.63;6118383;23;20351;-73
2022/11/15 06:23:04;;;;;;;5.53;5.13;;;;;;;10.43;100.00;100393.47;6110629;23;20680;-74
2022/11/15 06:25:31;;;;;;;6.00;5.50;;;;;;;10.42;100.00;100395.22;6066545;23;20038;-74
2022/11/15 06:27:58;;;;;;;5.45;5.05;;;;;;;10.05;100.00;100333.50;6071528;23;20022;-74
2022/11/15 06:30:26;;;;;;;7.05;5.63;;;;;;;9.72;100.00;100287.25;6089745;23;20025;-76
2022/11/15 06:33:02;;;;;;;8.07;5.20;;;;;;;10.35;100.00;100407.03;6098040;23;20083;-75
2022/11/15 06:35:29;;;;;;;5.38;5.05;;;;;;;9.85;100.00;100335.44;6088254;23;21174;-73
2022/11/15 06:38:01;;;;;;;4.90;4.60;;;;;;;9.83;100.00;100350.41;6118972;23;20124;-74
2022/11/15 06:40:27;;;;;;;4.63;4.40;;;;;;;10.13;100.00;100415.19;6066724;23;20034;-75
2022/11/15 06:42:59;;;;;;;5.00;4.70;;;;;;;9.96;100.00;100401.25;6116425;23;20021;-75
2022/11/15 06:45:26;;;;;;;12.10;5.75;;;;;;;9.59;100.00;100353.41;6102500;23;20021;-76
2022/11/15 06:47:52;;;;;;;4.80;4.55;;;;;;;9.86;100.00;100407.91;6087954;23;20088;-74
2022/11/15 06:50:19;;;;;;;4.95;4.65;;;;;;;9.59;100.00;100373.53;6088603;23;20400;-75
2022/11/15 06:52:46;;;;;;;5.03;4.63;;;;;;;9.82;100.00;100410.75;6116902;23;20074;-77
2022/11/15 06:55:12;;;;;;;4.78;4.47;;;;;;;9.24;100.00;100318.66;6093619;23;20013;-78
2022/11/15 06:57:47;;;;;;;5.10;4.80;;;;;;;9.33;100.00;100327.78;6110298;23;20021;-77
2022/11/15 07:00:14;;;;;;;5.30;5.00;;;;;;;9.93;100.00;100424.97;6116375;23;20391;-76
2022/11/15 07:02:41;;;;;;;5.70;5.30;;;;;;;9.58;100.00;100367.47;6087840;23;20009;-76
2022/11/15 07:05:07;;;;;;;5.75;5.20;;;;;;;9.97;100.00;100429.13;6086648;23;20053;-77
2022/11/15 07:07:34;;;;;;;5.35;4.90;;;;;;;10.04;100.00;100439.28;6117326;23;20609;-76
2022/11/15 07:10:00;;;;;;;5.63;5.05;;;;;;;9.93;100.00;100421.53;6109476;23;20021;-76
2022/11/15 07:12:27;;;;;;;5.53;5.05;;;;;;;10.03;100.00;100440.22;6085751;23;20021;-77
2022/11/15 07:14:53;;;;;;;4.82;4.53;;;;;;;10.08;100.00;100448.69;6112278;23;20025;-76
2022/11/15 07:17:19;;;;;;;5.43;5.03;;;;;;;9.79;100.00;100402.13;6088554;23;20077;-77
2022/11/15 07:19:46;;;;;;;5.30;4.90;;;;;;;9.73;100.00;100412.09;6119159;23;20018;-76
2022/11/15 07:22:12;;;;;;;7.20;4.95;;;;;;;10.14;100.00;100459.69;6073305;23;20037;-76
2022/11/15 07:24:39;;;;;;;5.38;4.97;;;;;;;9.96;100.00;100418.72;6112501;23;20192;-76
2022/11/15 07:27:05;;;;;;;6.18;5.63;;;;;;;10.03;100.00;100427.97;6100426;23;20028;-75
2022/11/15 07:29:32;;;;;;;5.38;5.07;;;;;;;9.90;100.00;100405.94;6086421;23;20053;-76
2022/11/15 07:32:02;;;;;;;6.07;5.57;;;;;;;9.93;100.00;100416.28;6092027;23;20026;-76
2022/11/15 07:34:28;;;;;;;5.45;5.10;;;;;;;10.25;100.00;100479.25;6109366;23;20032;-76
2022/11/15 07:36:54;;;;;;;5.60;5.20;;;;;;;9.94;100.00;100452.91;6105598;23;20038;-75
2022/11/15 07:39:24;;;;;;;5.40;4.88;;;;;;;10.19;100.00;100491.75;6109941;23;20309;-76
2022/11/15 07:42:52;;;;;;;6.18;5.38;;;;;;;9.86;100.00;100441.13;6100631;23;20083;-76
2022/11/15 07:44:37;;;;;;;16.40;5.45;;;;;;;10.19;100.00;100493.53;6104140;23;20049;-79
2022/11/15 07:47:04;;;;;;;5.80;5.28;;;;;;;10.22;100.00;100495.97;6078042;23;20458;-75
2022/11/15 07:49:30;;;;;;;5.80;5.40;;;;;;;10.26;100.00;100501.91;6113438;23;20013;-75
2022/11/15 07:51:57;;;;;;;4.85;4.45;;;;;;;9.92;100.00;100431.16;6082649;23;20030;-75
2022/11/15 07:54:23;;;;;;;5.72;5.43;;;;;;;9.66;100.00;100398.50;6109737;23;20022;-76
2022/11/15 07:56:50;;;;;;;4.90;4.70;;;;;;;10.17;100.00;100479.66;6080022;23;20855;-76
2022/11/15 07:59:19;;;;;;;4.75;4.50;;;;;;;10.06;100.00;100456.63;6089857;23;20275;-76
2022/11/15 08:01:45;;;;;;;5.00;4.70;;;;;;;10.29;100.00;100499.97;6055532;23;20021;-76
2022/11/15 08:04:12;;;;;;;5.28;4.80;;;;;;;10.30;100.00;100506.09;6090777;23;20395;-75
2022/11/15 08:06:42;;;;;;;5.15;4.78;;;;;;;10.31;100.00;100513.03;6070353;23;20022;-76
2022/11/15 08:09:08;;;;;;;5.65;5.25;;;;;;;9.31;100.00;100347.97;6074174;23;20010;-75
2022/11/15 08:11:35;;;;;;;5.30;4.90;;;;;;;10.40;100.00;100520.38;6090098;23;20034;-76
2022/11/15 08:14:01;;;;;;;5.57;5.07;;;;;;;10.47;100.00;100513.06;6062530;23;20018;-76
2022/11/15 08:16:28;;;;;;;4.88;4.60;;;;;;;10.06;100.00;100443.50;6117792;23;20505;-77
2022/11/15 08:18:55;;;;;;;11.00;5.43;;;;;;;10.61;100.00;100528.03;6086086;23;20850;-76
2022/11/15 08:21:22;;;;;;;4.70;4.50;;;;;;;10.38;100.00;100481.16;6092438;23;20030;-76
2022/11/15 08:23:49;;;;;;;4.97;4.68;;;;;;;10.58;100.00;100494.94;6113391;23;20021;-75
2022/11/15 08:26:15;;;;;;;4.80;4.50;;;;;;;10.93;100.00;100539.38;6093269;23;20022;-76
2022/11/15 08:28:42;;;;;;;5.38;5.07;;;;;;;10.04;100.00;100386.84;6114799;23;20029;-75
2022/11/15 08:31:17;;;;;;;5.10;4.80;;;;;;;10.60;100.00;100477.31;6099325;23;20021;-78
2022/11/15 08:33:44;;;;;;;5.30;4.90;;;;;;;11.07;100.00;100549.94;6117075;23;20033;-76
2022/11/15 08:36:14;;;;;;;5.40;5.10;;;;;;;11.09;100.00;100553.31;6066499;23;20018;-76
2022/11/15 08:38:41;;;;;;;5.30;4.97;;;;;;;11.12;100.00;100554.94;6121177;23;20032;-76
2022/11/15 08:41:16;;;;;;;4.82;4.53;;;;;;;10.88;100.00;100518.59;6095940;23;20104;-75
2022/11/15 08:43:43;;;;;;;5.22;4.93;;;;;;;11.17;100.00;100551.09;6118408;23;20051;-77
2022/11/15 08:46:13;;;;;;;4.68;4.38;;;;;;;11.22;100.00;100556.09;6072943;23;20025;-76
2022/11/15 08:48:39;;;;;;;5.50;5.05;;;;;;;11.20;100.00;100547.44;6109907;23;20028;-76
2022/11/15 08:51:06;;;;;;;5.30;4.90;;;;;;;11.25;100.00;100544.59;6094371;23;20021;-76
2022/11/15 08:53:33;;;;;;;5.10;4.80;;;;;;;10.84;100.00;100482.97;6091348;23;20033;-76
2022/11/15 08:56:01;;;;;;;5.00;4.70;;;;;;;11.14;100.00;100524.16;6116892;23;20048;-76
2022/11/15 08:58:28;;;;;;;13.15;5.50;;;;;;;9.86;100.00;100328.41;6087208;23;20040;-76
2022/11/15 09:00:55;;;;;;;5.82;5.32;;;;;;;11.19;100.00;100540.53;6109279;23;20013;-76
2022/11/15 09:03:21;;;;;;;5.20;4.80;;;;;;;11.09;100.00;100513.94;6090955;23;20036;-76
2022/11/15 09:05:48;;;;;;;5.15;4.85;;;;;;;11.17;100.00;100535.34;6118695;23;20022;-77
2022/11/15 09:08:15;;;;;;;5.43;5.03;;;;;;;10.63;100.00;100440.41;6064808;23;20029;-76
2022/11/15 09:11:09;;;;;;;4.85;4.55;;;;;;;11.33;100.00;100548.44;6119139;23;20085;-76
2022/11/15 09:13:36;;;;;;;5.15;4.85;;;;;;;10.65;100.00;100409.69;6083757;23;20038;-77
2022/11/15 09:16:04;;;;;;;4.53;4.28;;;;;;;11.56;100.00;100547.09;6119330;23;20028;-75
2022/11/15 09:18:30;;;;;;;5.47;5.18;;;;;;;11.65;100.00;100534.38;6089427;23;20075;-76
2022/11/15 09:20:59;;;;;;;4.70;4.50;;;;;;;11.65;100.00;100552.78;6094921;23;20051;-75
2022/11/15 09:23:28;;;;;;;4.78;4.55;;;;;;;11.38;100.00;100501.75;6118982;23;20078;-76
2022/11/15 09:26:01;;;;;;;4.82;4.53;;;;;;;11.31;100.00;100470.66;6111254;23;20054;-76
2022/11/15 09:28:28;;;;;;;5.43;5.05;;;;;;;11.29;100.00;100464.66;6083318;23;20034;-77
2022/11/15 09:31:00;;;;;;;4.90;4.60;;;;;;;11.87;100.00;100547.09;6115713;23;20029;-77
2022/11/15 09:33:27;;;;;;;4.88;4.68;;;;;;;11.60;100.00;100491.72;6089890;23;20033;-76
2022/11/15 09:36:00;;;;;;;4.88;4.57;;;;;;;11.53;99.14;100478.13;6093664;23;20026;-74
2022/11/15 09:38:26;;;;;;;4.88;4.57;;;;;;;11.60;97.78;100445.25;6089282;23;20083;-76
2022/11/15 09:41:13;;;;;;;4.63;4.38;;;;;;;12.18;95.96;100519.78;6095378;23;20096;-75
2022/11/15 09:43:45;;;;;;;5.00;4.70;;;;;;;12.22;94.15;100508.13;6089231;23;20033;-78
2022/11/15 09:46:37;;;;;;;5.07;4.82;;;;;;;12.23;93.50;100509.81;6095076;23;20051;-75
2022/11/15 09:49:06;;;;;;;4.80;4.50;;;;;;;12.31;93.72;100507.56;6107114;23;20075;-77
2022/11/15 09:52:07;;;;;;;5.03;4.72;;;;;;;12.23;93.29;100493.16;6092888;23;20036;-76
2022/11/15 09:54:46;;;;;;;14.60;5.00;;;;;;;12.26;94.14;100498.25;6108085;23;20031;-76
2022/11/15 09:57:31;;;;;;;5.20;4.70;;;;;;;12.35;93.42;100482.75;6086108;23;20043;-75
2022/11/15 10:00:06;;;;;;;5.38;4.90;;;;;;;12.34;92.25;100475.78;6115253;23;20515;-75
2022/11/15 10:02:55;;;;;;;5.13;4.82;;;;;;;12.44;91.42;100469.94;6079176;23;20022;-75
2022/11/15 10:05:25;;;;;;;5.15;4.90;;;;;;;11.56;90.02;100313.19;6092759;23;20013;-76
2022/11/15 10:08:16;;;;;;;5.18;4.80;;;;;;;12.55;88.71;100452.53;6088731;23;20092;-76
2022/11/15 10:10:49;;;;;;;4.88;4.68;;;;;;;12.43;87.58;100407.69;6066597;23;20039;-75
2022/11/15 10:13:41;;;;;;;4.90;4.60;;;;;;;12.22;86.21;100359.94;6119355;23;20033;-76
2022/11/15 10:16:30;;;;;;;5.38;4.95;;;;;;;11.63;85.10;100252.38;6086922;23;20149;-75
2022/11/15 10:19:24;;;;;;;4.97;4.57;;;;;;;13.00;84.24;100428.53;6094368;23;20178;-76
2022/11/15 10:22:23;;;;;;;4.82;4.63;;;;;;;12.98;82.35;100412.00;6088139;23;20186;-76
2022/11/15 10:25:06;;;;;;;4.75;4.55;;;;;;;12.50;81.92;100332.69;6110484;23;20021;-75
2022/11/15 10:27:33;;;;;;;;;;;;;;;12.94;81.14;100389.44;6092978;23;20347;-75
2022/11/15 10:30:00;;;;;;;4.63;4.40;;;;;;;12.97;80.45;100384.81;6087020;23;19906;-76
2022/11/15 10:32:34;;;;;;;4.88;4.57;;;;;;;12.99;79.23;100379.44;6063964;23;20107;-76
2022/11/15 10:35:17;;;;;;;4.70;4.50;;;;;;;13.03;78.67;100373.03;6115852;23;20006;-76
2022/11/15 10:37:43;;;;;;;4.95;4.65;;;;;;;12.44;79.46;100272.56;6090848;23;20512;-75
2022/11/15 10:40:24;;;;;;;4.95;4.60;;;;;;;12.81;78.31;100312.19;6117149;23;20090;-77
2022/11/15 10:43:18;;;;;;;4.90;4.60;;;;;;;13.28;77.17;100355.53;6089586;23;20021;-76
2022/11/15 10:45:52;;;;;;;4.55;4.35;;;;;;;13.44;77.10;100360.63;6104288;23;20028;-77
2022/11/15 10:48:21;;;;;;;4.90;4.50;;;;;;;13.51;76.77;100340.75;6094003;23;20038;-77
2022/11/15 10:50:49;;;;;;;5.20;4.90;;;;;;;13.48;75.80;100327.81;6089080;23;20724;-76
2022/11/15 10:53:30;;;;;;;4.88;4.68;;;;;;;13.49;74.13;100298.72;6092045;23;20053;-77
2022/11/15 10:56:11;;;;;;;4.80;4.50;;;;;;;13.44;72.57;100268.34;6117992;23;20450;-76
2022/11/15 10:58:43;;;;;;;4.60;4.40;;;;;;;12.97;71.38;100150.38;6091185;23;20033;-77
2022/11/15 11:01:10;;;;;;;;;;;;;;;13.78;70.17;100261.50;6090610;23;20118;-76
2022/11/15 11:03:39;;;;;;;4.70;4.40;;;;;;;13.84;70.17;100258.41;6080044;23;19910;-76
2022/11/15 11:06:18;;;;;;;4.70;4.50;;;;;;;13.86;68.51;100224.00;6067242;23;20510;-77
2022/11/15 11:08:59;;;;;;;4.93;4.53;;;;;;;13.95;68.79;100229.47;6085823;23;20021;-77
2022/11/15 11:11:47;;;;;;;4.60;4.40;;;;;;;13.17;67.35;100098.06;6101313;23;20209;-77
2022/11/15 11:14:26;;;;;;;4.75;4.55;;;;;;;13.76;67.66;100192.19;6092623;23;20052;-77
2022/11/15 11:17:08;;;;;;;4.80;4.60;;;;;;;14.10;66.54;100198.44;6093500;23;20037;-77
2022/11/15 11:20:03;;;;;;;4.55;4.35;;;;;;;14.11;65.07;100157.06;6089534;23;20026;-77
2022/11/15 11:23:02;;;;;;;5.15;4.65;;;;;;;14.03;65.03;100149.75;6115139;23;20025;-76
2022/11/15 11:25:50;;;;;;;5.35;5.07;;;;;;;14.02;66.15;100177.06;6088316;23;20089;-76
2022/11/15 11:28:46;;;;;;;5.10;4.80;;;;;;;13.93;65.64;100146.94;6089444;23;20064;-75
2022/11/15 11:31:31;;;;;;;4.72;4.53;;;;;;;13.98;65.07;100149.22;6091008;23;20038;-75
2022/11/15 11:34:31;;;;;;;4.90;4.70;;;;;;;13.86;64.67;100137.81;6088188;23;20037;-76
2022/11/15 11:37:16;;;;;;;5.18;4.70;;;;;;;13.57;64.88;100109.19;6084053;23;20610;-76
2022/11/15 11:39:52;;;;;;;4.63;4.43;;;;;;;13.66;66.63;100151.63;6118604;23;20030;-76
2022/11/15 11:42:44;;;;;;;4.80;4.60;;;;;;;13.59;67.46;100163.56;6083276;23;20010;-78
2022/11/15 11:45:36;;;;;;;5.13;4.72;;;;;;;13.49;67.52;100158.13;6117840;23;20022;-76
2022/11/15 11:48:13;;;;;;;4.88;4.57;;;;;;;13.54;67.17;100156.00;6092625;23;20057;-76
2022/11/15 11:50:44;;;;;;;5.03;4.72;;;;;;;13.24;66.98;100111.63;6088147;23;20454;-76